Terminal Aerodrome Forecast
Issued by NWS

Home | Current Version | Previous Version | Text Only | Print | Product List | Glossary On
Versions: 1 2 3 4 5 6 7 8 9 10 11 12 13 14 15 16 17 18 19 20
000
FTUS43 KAPX 170500
TAFPLN
TAF
KPLN 170520Z 1706/1806 24006KT P6SM BKN080
     FM171400 25011G19KT P6SM BKN100
     FM172100 31009KT P6SM BKN100
     FM180000 35007KT P6SM SKC=

USA.gov is the U.S. government's official web portal to all federal, state and local government web resources and services.